Time;durP1;ratioP1;P1;durP2;ratioP2;P2;SDS_P1;SDS_P2;PMS_P1;PMS_P2;Temp;Humidity;BMP_temperature;BMP_pressure;BME280_temperature;BME280_humidity;BME280_pressure;Samples;Min_cycle;Max_cycle;Signal;HPM_P1;HPM_P2
2021/12/26 00:02:09;;;;;;;3.00;0.40;;;-4.80;95.20;;;;;;5100444;28;20028;-61
2021/12/26 00:04:35;;;;;;;1.75;0.55;;;-4.90;95.60;;;;;;5085723;27;20039;-61
2021/12/26 00:07:02;;;;;;;2.88;0.57;;;-4.90;96.60;;;;;;5086188;27;20039;-61
2021/12/26 00:09:28;;;;;;;2.67;0.43;;;-4.90;96.90;;;;;;5100372;27;20371;-61
2021/12/26 00:11:54;;;;;;;2.05;1.13;;;-4.90;96.40;;;;;;5083966;28;20112;-61
2021/12/26 00:14:19;;;;;;;1.55;0.50;;;-5.00;96.40;;;;;;5081415;28;20504;-61
2021/12/26 00:16:46;;;;;;;1.45;0.47;;;-5.00;95.40;;;;;;5087748;28;20043;-61
2021/12/26 00:19:12;;;;;;;1.98;0.40;;;-4.90;95.60;;;;;;5088220;27;20955;-61
2021/12/26 00:21:38;;;;;;;1.63;0.50;;;-4.90;95.50;;;;;;5086264;28;20040;-61
2021/12/26 00:24:04;;;;;;;1.65;0.45;;;-4.90;94.10;;;;;;5111953;27;20102;-61
2021/12/26 00:26:32;;;;;;;2.42;0.47;;;-4.80;94.30;;;;;;5087673;28;20509;-61
2021/12/26 00:29:01;;;;;;;1.65;0.50;;;-4.80;93.00;;;;;;5084626;28;20054;-61
2021/12/26 00:31:27;;;;;;;4.10;0.47;;;-4.80;92.70;;;;;;5103402;27;20054;-61
2021/12/26 00:33:53;;;;;;;1.52;0.40;;;-4.70;92.70;;;;;;5102877;27;20037;-61
2021/12/26 00:36:19;;;;;;;2.55;0.57;;;-4.70;92.50;;;;;;5068393;28;20090;-61
2021/12/26 00:38:45;;;;;;;3.15;0.40;;;-4.40;91.50;;;;;;5105423;27;20035;-61
2021/12/26 00:41:11;;;;;;;1.20;0.40;;;-4.60;91.90;;;;;;5113413;27;20504;-61
2021/12/26 00:43:37;;;;;;;2.15;0.50;;;-4.70;92.00;;;;;;5084315;28;20048;-61
2021/12/26 00:46:03;;;;;;;1.60;0.40;;;-4.70;90.60;;;;;;5081797;28;20031;-61
2021/12/26 00:48:29;;;;;;;1.98;0.50;;;-4.40;90.10;;;;;;5096423;27;20047;-61
2021/12/26 00:50:55;;;;;;;1.40;0.40;;;-4.60;90.10;;;;;;5098528;27;20031;-61
2021/12/26 00:53:24;;;;;;;0.95;0.20;;;-4.60;89.30;;;;;;5077318;28;20047;-61
2021/12/26 00:55:50;;;;;;;1.88;0.35;;;-4.50;88.00;;;;;;5078420;27;20054;-61
2021/12/26 00:58:17;;;;;;;1.65;0.32;;;-4.50;89.00;;;;;;5064326;28;20046;-61
2021/12/26 01:00:45;;;;;;;1.77;0.25;;;-4.60;88.70;;;;;;5062135;27;20044;-61
2021/12/26 01:03:11;;;;;;;2.85;0.60;;;-4.60;86.50;;;;;;5078711;28;20044;-61
2021/12/26 01:05:39;;;;;;;2.35;0.40;;;-4.60;89.10;;;;;;5097499;28;20042;-61
2021/12/26 01:08:09;;;;;;;1.55;0.50;;;-4.60;88.10;;;;;;5110651;27;20166;-61
2021/12/26 01:10:37;;;;;;;1.33;0.30;;;-4.70;86.20;;;;;;5075364;28;20615;-61
2021/12/26 01:13:14;;;;;;;1.38;0.30;;;-4.60;88.20;;;;;;5077263;28;20055;-61
2021/12/26 01:15:43;;;;;;;7.18;0.47;;;-4.70;88.20;;;;;;5111533;27;20096;-61
2021/12/26 01:18:09;;;;;;;3.03;0.50;;;-4.70;88.10;;;;;;5076522;28;20047;-61
2021/12/26 01:23:28;;;;;;;2.28;0.60;;;-4.80;87.80;;;;;;5056097;28;20051;-61
2021/12/26 01:25:55;;;;;;;1.38;0.50;;;-4.80;87.60;;;;;;5095913;28;20047;-61
2021/12/26 01:28:23;;;;;;;1.23;0.50;;;-4.80;89.20;;;;;;5077891;28;20868;-61
2021/12/26 01:30:49;;;;;;;2.00;0.70;;;-4.80;88.00;;;;;;5079137;28;20082;-61
2021/12/26 01:33:17;;;;;;;3.53;0.47;;;-4.80;88.30;;;;;;5099357;27;20042;-61
2021/12/26 01:35:43;;;;;;;2.47;0.50;;;-4.80;87.70;;;;;;5081927;28;20130;-61
2021/12/26 01:38:13;;;;;;;2.83;0.30;;;-4.80;87.50;;;;;;5077938;28;20536;-61
2021/12/26 01:40:43;;;;;;;2.85;0.60;;;-4.80;88.10;;;;;;5081091;28;20040;-61
2021/12/26 01:43:08;;;;;;;3.65;0.40;;;-4.90;89.20;;;;;;5076248;28;20406;-61
2021/12/26 01:45:34;;;;;;;1.52;0.73;;;-4.90;88.90;;;;;;5110431;28;20031;-61
2021/12/26 01:48:01;;;;;;;1.80;0.45;;;-4.90;88.50;;;;;;5081698;28;20055;-61
2021/12/26 01:50:28;;;;;;;1.73;0.80;;;-4.90;87.70;;;;;;5079068;28;20046;-61
2021/12/26 01:52:54;;;;;;;0.88;0.40;;;-5.00;88.60;;;;;;5077632;28;20134;-61
2021/12/26 01:58:06;;;;;;;2.10;0.50;;;-5.00;89.60;;;;;;5078657;28;20052;-61
2021/12/26 02:00:33;;;;;;;4.32;1.40;;;-5.00;89.70;;;;;;5109923;28;20040;-61
2021/12/26 02:02:58;;;;;;;5.82;0.93;;;-5.00;89.60;;;;;;5094354;28;20115;-61
2021/12/26 02:05:24;;;;;;;3.22;0.75;;;-5.10;89.50;;;;;;5096975;28;20147;-61
2021/12/26 02:07:50;;;;;;;1.50;0.50;;;-5.10;89.60;;;;;;5081470;28;20054;-61
2021/12/26 02:10:15;;;;;;;2.70;0.82;;;-5.10;88.80;;;;;;5078071;28;20054;-61
2021/12/26 02:12:42;;;;;;;4.75;0.55;;;-5.10;88.30;;;;;;5079852;28;20074;-61
2021/12/26 02:15:09;;;;;;;1.40;0.30;;;-5.00;88.30;;;;;;5095745;28;20050;-61
2021/12/26 02:17:35;;;;;;;2.25;0.63;;;-5.10;89.40;;;;;;5095711;28;20382;-61
2021/12/26 02:20:35;;;;;;;1.67;0.57;;;-5.20;90.00;;;;;;5079505;28;20040;-61
2021/12/26 02:23:09;;;;;;;1.48;0.50;;;-5.10;88.70;;;;;;5097744;28;20047;-61
2021/12/26 02:28:16;;;;;;;1.17;0.50;;;-5.20;88.80;;;;;;5081164;28;20043;-61
2021/12/26 02:30:42;;;;;;;3.03;0.50;;;-5.20;89.40;;;;;;5083432;28;20297;-61
2021/12/26 02:33:11;;;;;;;2.42;0.55;;;-5.20;89.70;;;;;;5087295;28;20039;-61
2021/12/26 02:35:41;;;;;;;2.50;0.60;;;-4.80;90.40;;;;;;5084670;28;20052;-61
2021/12/26 02:38:08;;;;;;;1.77;0.50;;;-5.20;90.50;;;;;;5082819;28;20048;-61
2021/12/26 02:40:34;;;;;;;2.35;0.52;;;-5.30;90.50;;;;;;5102482;28;20431;-61
2021/12/26 02:43:00;;;;;;;3.38;0.77;;;-5.30;90.60;;;;;;5100775;28;20039;-61
2021/12/26 02:45:26;;;;;;;2.65;0.98;;;-5.40;90.00;;;;;;5085145;28;20043;-61
2021/12/26 02:47:53;;;;;;;2.22;0.50;;;-5.30;90.20;;;;;;5103840;28;20544;-61
2021/12/26 02:50:25;;;;;;;1.15;0.40;;;-5.30;90.30;;;;;;5082558;28;20440;-61
2021/12/26 02:52:51;;;;;;;3.10;0.50;;;-5.30;90.30;;;;;;5085091;28;20047;-61
2021/12/26 02:55:18;;;;;;;2.30;0.80;;;-5.40;90.90;;;;;;5100831;27;20047;-61
2021/12/26 02:57:53;;;;;;;2.38;0.90;;;-5.40;90.70;;;;;;5103327;27;20062;-61
2021/12/26 03:00:22;;;;;;;3.08;1.02;;;-5.50;91.20;;;;;;5116499;27;20382;-61
2021/12/26 03:02:52;;;;;;;1.90;1.25;;;-5.50;91.40;;;;;;5103335;28;20035;-61
2021/12/26 03:05:18;;;;;;;1.38;0.50;;;-5.60;91.60;;;;;;5086306;28;20043;-61
2021/12/26 03:07:46;;;;;;;2.55;0.40;;;-5.60;91.80;;;;;;5092187;27;20055;-61
2021/12/26 03:10:21;;;;;;;2.47;0.50;;;-5.60;91.40;;;;;;5085465;28;20550;-61
2021/12/26 03:12:51;;;;;;;3.03;1.07;;;-5.60;91.50;;;;;;5086864;27;20043;-61
2021/12/26 03:15:17;;;;;;;2.20;0.57;;;-5.60;91.70;;;;;;5103691;27;20071;-61
2021/12/26 03:17:43;;;;;;;2.88;0.73;;;-5.60;91.70;;;;;;5105259;27;20489;-61
2021/12/26 03:20:18;;;;;;;2.17;0.60;;;-5.70;91.20;;;;;;5085128;28;20063;-61
2021/12/26 03:22:46;;;;;;;2.70;0.60;;;-5.60;91.50;;;;;;5084153;28;20134;-61
2021/12/26 03:25:15;;;;;;;2.33;0.70;;;-5.70;91.40;;;;;;5086885;27;20130;-61
2021/12/26 03:27:41;;;;;;;1.63;0.52;;;-5.60;92.00;;;;;;5086353;28;20043;-61
2021/12/26 03:30:13;;;;;;;3.80;0.40;;;-5.60;92.20;;;;;;5070601;27;20156;-61
2021/12/26 03:32:40;;;;;;;2.28;0.60;;;-5.70;92.30;;;;;;5103639;27;20046;-61
2021/12/26 03:35:08;;;;;;;1.70;0.70;;;-5.70;92.40;;;;;;5083343;28;20388;-61
2021/12/26 03:37:34;;;;;;;3.25;0.57;;;-5.70;92.40;;;;;;5104793;27;20353;-61
2021/12/26 03:40:00;;;;;;;3.53;0.52;;;-5.70;92.40;;;;;;5106885;27;20039;-61
2021/12/26 03:42:25;;;;;;;1.13;0.50;;;-5.70;92.40;;;;;;5084951;27;20047;-61
2021/12/26 03:44:52;;;;;;;2.90;0.50;;;-5.70;92.50;;;;;;5085325;28;20046;-61
2021/12/26 03:47:18;;;;;;;2.40;0.60;;;-5.70;91.90;;;;;;5087258;28;20544;-61
2021/12/26 03:49:44;;;;;;;1.50;0.63;;;-5.70;92.00;;;;;;5104437;27;20400;-61
2021/12/26 03:52:10;;;;;;;2.67;1.20;;;-5.70;92.00;;;;;;5104681;27;20796;-61
2021/12/26 03:54:36;;;;;;;4.47;0.77;;;-5.40;92.90;;;;;;5069023;28;20075;-61
2021/12/26 03:57:02;;;;;;;5.78;1.15;;;-5.80;92.10;;;;;;5075332;28;20060;-61
2021/12/26 03:59:28;;;;;;;3.35;0.50;;;-5.70;91.90;;;;;;5071805;28;20407;-61
2021/12/26 04:01:55;;;;;;;1.27;0.75;;;-5.70;92.00;;;;;;5082084;28;20051;-61
2021/12/26 04:04:21;;;;;;;2.88;0.80;;;-5.70;92.10;;;;;;5080486;28;20046;-61
2021/12/26 04:06:47;;;;;;;3.30;0.82;;;-5.70;92.30;;;;;;5090142;27;20036;-61
2021/12/26 04:09:13;;;;;;;2.78;0.73;;;-4.50;92.70;;;;;;5083761;28;20035;-61
2021/12/26 04:11:42;;;;;;;1.85;0.57;;;-5.70;92.40;;;;;;5099111;28;20615;-61
2021/12/26 04:14:08;;;;;;;3.35;0.80;;;-5.70;92.60;;;;;;5099889;27;20482;-61
2021/12/26 04:16:33;;;;;;;3.60;0.60;;;-5.70;92.70;;;;;;5084963;28;20160;-61
2021/12/26 04:18:59;;;;;;;2.13;0.75;;;-5.50;92.90;;;;;;5087894;27;20389;-61
2021/12/26 04:21:25;;;;;;;4.32;1.20;;;-5.80;93.20;;;;;;5104285;27;20133;-61
2021/12/26 04:23:50;;;;;;;3.80;0.50;;;-5.80;92.60;;;;;;5089600;28;20067;-61
2021/12/26 04:26:16;;;;;;;1.73;0.65;;;-5.80;92.30;;;;;;5102990;27;20176;-61
2021/12/26 04:28:41;;;;;;;3.13;0.60;;;-5.80;92.70;;;;;;5086902;28;20443;-61
2021/12/26 04:31:07;;;;;;;3.30;0.90;;;-5.80;92.80;;;;;;5104002;27;20059;-61
2021/12/26 04:33:33;;;;;;;2.00;0.70;;;-5.80;93.30;;;;;;5103423;27;20072;-61
2021/12/26 04:35:59;;;;;;;3.08;0.80;;;-5.90;92.60;;;;;;5104483;27;20126;-61
2021/12/26 04:38:24;;;;;;;4.97;0.77;;;-5.80;92.50;;;;;;5087174;27;20120;-61
2021/12/26 04:40:51;;;;;;;3.63;0.80;;;-5.90;93.00;;;;;;5085548;27;20058;-61
2021/12/26 04:43:20;;;;;;;6.50;1.00;;;-5.90;93.20;;;;;;5083640;28;20059;-61
2021/12/26 04:45:47;;;;;;;2.45;0.93;;;-6.00;93.30;;;;;;5083445;28;20100;-61
2021/12/26 04:48:12;;;;;;;2.72;0.90;;;-5.90;93.30;;;;;;5082135;28;20048;-61
2021/12/26 04:50:38;;;;;;;2.20;0.82;;;-5.90;93.20;;;;;;5087364;28;20394;-61
2021/12/26 04:53:04;;;;;;;2.00;0.80;;;-5.90;92.90;;;;;;5082184;28;20078;-61
2021/12/26 04:55:30;;;;;;;3.40;0.80;;;-5.90;93.10;;;;;;5099636;27;20035;-61
2021/12/26 04:57:56;;;;;;;5.72;1.10;;;-5.90;92.50;;;;;;5088462;28;20080;-61
2021/12/26 05:00:26;;;;;;;2.22;0.90;;;-5.90;93.30;;;;;;5083317;28;20131;-61
2021/12/26 05:02:52;;;;;;;2.03;0.90;;;-5.90;93.10;;;;;;5102267;27;20432;-61
2021/12/26 05:05:18;;;;;;;4.38;0.82;;;-5.90;93.40;;;;;;5104963;28;20038;-61
2021/12/26 05:07:44;;;;;;;1.98;0.70;;;-5.90;93.20;;;;;;5084930;27;20059;-61
2021/12/26 05:10:12;;;;;;;3.15;0.63;;;-5.90;93.00;;;;;;5104710;27;20118;-61
2021/12/26 05:12:39;;;;;;;3.50;1.20;;;-5.90;93.30;;;;;;5098721;27;20035;-61
2021/12/26 05:15:08;;;;;;;3.90;1.08;;;-5.90;93.40;;;;;;5096209;27;20784;-61
2021/12/26 05:17:33;;;;;;;3.95;0.80;;;-5.80;93.10;;;;;;5098084;27;20046;-61
2021/12/26 05:19:59;;;;;;;2.03;0.77;;;-5.80;93.40;;;;;;5096956;27;20059;-61
2021/12/26 05:22:25;;;;;;;2.65;0.98;;;-5.90;92.90;;;;;;5077468;28;20071;-61
2021/12/26 05:24:51;;;;;;;1.85;0.68;;;-5.80;92.60;;;;;;5084819;28;20043;-61
2021/12/26 05:27:17;;;;;;;4.10;0.80;;;-5.80;92.80;;;;;;5095970;28;20059;-61
2021/12/26 05:29:43;;;;;;;3.58;1.00;;;-5.80;92.40;;;;;;5078130;28;20705;-61
2021/12/26 05:32:09;;;;;;;2.47;0.77;;;-5.80;92.00;;;;;;5079867;28;20452;-61
2021/12/26 05:34:34;;;;;;;1.52;0.43;;;-5.80;92.50;;;;;;5078295;28;20035;-61
2021/12/26 05:37:00;;;;;;;1.95;0.73;;;-5.90;92.60;;;;;;5095253;27;20062;-61
2021/12/26 05:39:26;;;;;;;3.05;0.80;;;-5.80;92.80;;;;;;5106838;27;20051;-61
2021/12/26 05:41:52;;;;;;;3.25;0.82;;;-5.80;92.30;;;;;;5096101;28;20043;-61
2021/12/26 05:44:18;;;;;;;2.78;0.70;;;-5.80;92.20;;;;;;5097095;28;20032;-61
2021/12/26 05:46:45;;;;;;;3.47;0.95;;;-5.70;92.40;;;;;;5085292;28;20075;-61
2021/12/26 05:49:11;;;;;;;1.92;0.88;;;-5.80;92.40;;;;;;5095545;28;20140;-61
2021/12/26 05:51:37;;;;;;;4.45;0.93;;;-5.70;92.30;;;;;;5096761;28;20118;-61
2021/12/26 05:54:03;;;;;;;1.40;0.63;;;-5.70;91.90;;;;;;5077206;28;21073;-61
2021/12/26 05:56:29;;;;;;;1.95;0.80;;;-5.70;92.50;;;;;;5079174;28;20055;-61
2021/12/26 05:58:54;;;;;;;2.58;1.60;;;-5.70;91.90;;;;;;5080757;28;20040;-61
2021/12/26 06:01:20;;;;;;;2.88;1.35;;;-5.70;92.10;;;;;;5095467;28;20031;-61
2021/12/26 06:03:45;;;;;;;2.13;0.90;;;-5.70;91.80;;;;;;5097293;28;20039;-61
2021/12/26 06:06:11;;;;;;;2.47;0.88;;;-5.60;91.60;;;;;;5098393;28;20114;-62
2021/12/26 06:08:36;;;;;;;4.40;0.80;;;-5.60;91.30;;;;;;5099664;28;20080;-61
2021/12/26 06:11:02;;;;;;;1.92;0.90;;;-5.70;91.00;;;;;;5079483;28;20047;-61
2021/12/26 06:13:29;;;;;;;3.95;0.90;;;-5.70;91.20;;;;;;5096786;28;20044;-61
2021/12/26 06:15:55;;;;;;;2.80;0.82;;;-5.60;91.70;;;;;;5078353;28;20047;-61
2021/12/26 06:18:21;;;;;;;3.65;2.00;;;-5.60;91.20;;;;;;5098076;28;20089;-61
2021/12/26 06:20:47;;;;;;;3.20;0.80;;;-5.60;91.90;;;;;;5094327;28;20032;-61
2021/12/26 06:23:13;;;;;;;1.83;0.70;;;-5.60;91.80;;;;;;5095503;28;20036;-61
2021/12/26 06:25:39;;;;;;;3.63;1.20;;;-5.60;91.80;;;;;;5094617;28;20501;-61
2021/12/26 06:28:05;;;;;;;2.50;0.75;;;-5.60;92.10;;;;;;5081417;28;20080;-61
2021/12/26 06:30:31;;;;;;;3.75;0.73;;;-4.90;91.80;;;;;;5082894;28;20078;-61
2021/12/26 06:32:58;;;;;;;2.85;0.80;;;-5.70;92.00;;;;;;5081951;27;20424;-61
2021/12/26 06:35:23;;;;;;;3.17;0.90;;;-5.60;91.10;;;;;;5101821;27;20708;-61
2021/12/26 06:37:49;;;;;;;3.42;1.88;;;-5.60;91.60;;;;;;5083128;28;20046;-61
2021/12/26 06:40:15;;;;;;;3.88;0.80;;;-5.60;91.50;;;;;;5096229;27;20036;-61
2021/12/26 06:42:43;;;;;;;2.40;0.70;;;-5.70;91.70;;;;;;5080982;28;20427;-61
2021/12/26 06:45:10;;;;;;;2.45;0.82;;;-5.60;91.60;;;;;;5084992;28;20055;-61
2021/12/26 06:47:36;;;;;;;2.05;0.68;;;-5.70;92.00;;;;;;5081053;28;20303;-61
2021/12/26 06:50:04;;;;;;;4.07;1.08;;;-5.70;91.60;;;;;;5100086;27;20032;-61
2021/12/26 06:52:29;;;;;;;1.50;0.70;;;-5.70;91.80;;;;;;5080711;28;20515;-61
2021/12/26 06:54:55;;;;;;;2.28;1.20;;;-5.70;92.50;;;;;;5068871;27;20056;-61
2021/12/26 06:57:21;;;;;;;2.63;1.00;;;-5.70;91.70;;;;;;5102383;27;20066;-61
2021/12/26 06:59:47;;;;;;;2.83;0.98;;;-5.60;91.50;;;;;;5102735;27;20038;-61
2021/12/26 07:02:12;;;;;;;4.53;0.90;;;-5.60;91.30;;;;;;5081856;27;20035;-61
2021/12/26 07:04:38;;;;;;;3.78;1.77;;;-5.60;91.40;;;;;;5101062;27;20039;-61
2021/12/26 07:07:04;;;;;;;4.72;0.90;;;-5.60;91.30;;;;;;5083173;28;20143;-61
2021/12/26 07:09:30;;;;;;;4.47;0.50;;;-5.60;91.50;;;;;;5080652;28;20059;-61
2021/12/26 07:11:55;;;;;;;1.95;1.00;;;-5.60;91.40;;;;;;5081129;28;20490;-61
2021/12/26 07:14:21;;;;;;;6.55;1.55;;;-5.60;91.70;;;;;;5084727;28;20043;-61
2021/12/26 07:16:46;;;;;;;3.22;1.10;;;-5.60;92.30;;;;;;5083617;28;20617;-61
2021/12/26 07:19:12;;;;;;;3.90;1.05;;;-5.60;92.00;;;;;;5101060;27;20036;-61
2021/12/26 07:21:38;;;;;;;3.80;1.10;;;-5.60;91.70;;;;;;5098619;27;20032;-61
2021/12/26 07:24:04;;;;;;;2.08;0.98;;;-5.60;91.90;;;;;;5078841;28;20043;-61
2021/12/26 07:26:30;;;;;;;1.90;1.17;;;-5.60;92.30;;;;;;5085354;28;20138;-61
2021/12/26 07:28:56;;;;;;;3.38;1.00;;;-5.60;92.00;;;;;;5082011;28;20526;-61
2021/12/26 07:31:22;;;;;;;3.72;1.08;;;-5.60;92.50;;;;;;5100352;27;20036;-61
2021/12/26 07:33:47;;;;;;;2.03;0.80;;;-5.60;92.70;;;;;;5111287;27;20058;-62
2021/12/26 07:36:13;;;;;;;3.65;1.50;;;-5.60;92.20;;;;;;5079859;28;20043;-61
2021/12/26 07:38:39;;;;;;;2.50;1.10;;;-5.50;92.50;;;;;;5084034;28;20482;-61
2021/12/26 07:41:04;;;;;;;2.63;1.27;;;-5.60;92.50;;;;;;5079581;28;20043;-61
2021/12/26 07:43:30;;;;;;;8.02;1.42;;;-5.60;92.30;;;;;;5080862;28;20553;-61
2021/12/26 07:45:56;;;;;;;2.60;1.38;;;-5.70;92.10;;;;;;5081518;28;20072;-61
2021/12/26 07:48:21;;;;;;;3.15;1.45;;;-5.70;92.40;;;;;;5081331;27;20125;-61
2021/12/26 07:50:47;;;;;;;4.03;1.05;;;-5.60;92.60;;;;;;5097621;27;20486;-61
2021/12/26 07:53:12;;;;;;;2.55;1.23;;;-5.60;92.30;;;;;;5109575;27;20135;-61
2021/12/26 07:55:39;;;;;;;3.78;1.23;;;-5.60;92.70;;;;;;5099473;28;20075;-61
2021/12/26 07:58:05;;;;;;;3.97;1.63;;;-5.50;92.30;;;;;;5078005;28;20040;-61
2021/12/26 08:00:32;;;;;;;4.10;1.42;;;-5.50;92.60;;;;;;5095336;28;20031;-61
2021/12/26 08:02:58;;;;;;;3.22;1.52;;;-5.50;93.00;;;;;;5096218;28;20044;-61
2021/12/26 08:05:24;;;;;;;5.55;1.95;;;-5.50;92.60;;;;;;5077711;28;20072;-61
2021/12/26 08:07:51;;;;;;;3.75;1.85;;;-5.60;92.60;;;;;;5095144;28;20055;-61
2021/12/26 08:10:17;;;;;;;6.72;1.70;;;-5.50;92.90;;;;;;5080123;28;20101;-61
2021/12/26 08:12:42;;;;;;;2.60;1.40;;;-5.60;93.00;;;;;;5095212;28;20490;-61
2021/12/26 08:15:08;;;;;;;3.90;1.88;;;-5.50;92.50;;;;;;5100166;27;20039;-61
2021/12/26 08:17:35;;;;;;;3.38;1.40;;;-5.50;92.90;;;;;;5066594;28;20063;-61
2021/12/26 08:20:03;;;;;;;4.15;1.45;;;-5.50;92.00;;;;;;5078078;28;20052;-61
2021/12/26 08:22:29;;;;;;;2.78;1.55;;;-5.40;92.40;;;;;;5080233;28;20040;-61
2021/12/26 08:24:55;;;;;;;3.97;1.85;;;-5.30;91.60;;;;;;5080208;27;20047;-61
2021/12/26 08:27:21;;;;;;;6.57;2.05;;;-5.30;92.00;;;;;;5097128;27;20130;-61
2021/12/26 08:29:47;;;;;;;4.32;1.80;;;-5.20;91.40;;;;;;5097607;27;20046;-61
2021/12/26 08:32:15;;;;;;;4.40;1.60;;;-5.20;91.80;;;;;;5097343;27;20058;-61
2021/12/26 08:34:43;;;;;;;3.67;1.52;;;-5.20;92.10;;;;;;5079058;28;21375;-61
2021/12/26 08:37:08;;;;;;;2.92;1.42;;;-5.20;91.60;;;;;;5079204;28;20044;-61
2021/12/26 08:39:37;;;;;;;4.55;1.83;;;-5.20;91.40;;;;;;5079616;28;20075;-61
2021/12/26 08:42:05;;;;;;;4.65;1.67;;;-5.20;91.40;;;;;;5097287;27;20035;-60
2021/12/26 08:44:32;;;;;;;4.07;2.05;;;-5.00;91.30;;;;;;5079609;28;20115;-61
2021/12/26 08:46:58;;;;;;;3.28;1.63;;;-5.00;91.40;;;;;;5081438;28;20046;-61
2021/12/26 08:49:24;;;;;;;4.03;1.73;;;-5.00;90.30;;;;;;5081024;27;20032;-60
2021/12/26 08:51:50;;;;;;;3.72;1.70;;;-4.90;90.80;;;;;;5077566;28;20163;-60
2021/12/26 08:54:15;;;;;;;4.00;1.35;;;-4.90;90.20;;;;;;5079548;28;20307;-60
2021/12/26 08:56:42;;;;;;;4.75;1.83;;;-4.70;90.20;;;;;;5080076;28;20606;-60
2021/12/26 08:59:08;;;;;;;4.03;1.58;;;-4.60;90.30;;;;;;5099626;27;20035;-60
2021/12/26 09:01:35;;;;;;;3.40;2.53;;;-4.60;90.10;;;;;;5080769;28;20124;-60
2021/12/26 09:04:01;;;;;;;5.57;1.67;;;-4.50;90.40;;;;;;5096800;27;20138;-60
2021/12/26 09:06:27;;;;;;;3.15;1.50;;;-4.50;90.20;;;;;;5062927;27;20036;-61
2021/12/26 09:08:53;;;;;;;6.90;1.33;;;-4.40;90.00;;;;;;5098174;28;20032;-61
2021/12/26 09:11:19;;;;;;;2.92;1.60;;;-4.30;88.20;;;;;;5098043;28;20031;-60
2021/12/26 09:13:45;;;;;;;4.50;1.65;;;-4.20;87.80;;;;;;5084504;27;20038;-60
2021/12/26 09:16:11;;;;;;;4.25;1.60;;;-4.20;87.60;;;;;;5080590;28;20043;-60
2021/12/26 09:18:38;;;;;;;3.67;1.70;;;-4.10;87.30;;;;;;5099778;27;20087;-60
2021/12/26 09:21:05;;;;;;;3.45;2.22;;;-4.10;87.10;;;;;;5097933;28;20425;-61
2021/12/26 09:23:31;;;;;;;5.22;1.85;;;-4.00;86.60;;;;;;5080443;27;20051;-61
2021/12/26 09:25:57;;;;;;;3.83;2.33;;;-3.90;86.90;;;;;;5082883;28;20043;-60
2021/12/26 09:28:22;;;;;;;3.35;1.45;;;-3.80;88.10;;;;;;5099687;27;20031;-60
2021/12/26 09:30:48;;;;;;;4.22;1.90;;;-3.80;86.10;;;;;;5098711;27;20152;-60
2021/12/26 09:33:19;;;;;;;5.65;1.92;;;-3.80;85.70;;;;;;5079059;28;20906;-63
